JTA059 ROAH-RJFF
Flight info
| Callsign | JTA059 |
|---|---|
| Flight time | 1h 34m |
| Altitude | 39000 |
| Route | AMAMI Y25 ISKUP |
| Aircraft | B738/M-VGD/C |
Departure
| Time | 2026-04-29 06:23 |
|---|---|
| Airport | Naha International Airport (ROAH) |
Arrival
| Time | 2026-04-29 07:58 |
|---|---|
| Airport | Fukuoka Airport (RJFF) |
| Time | Latitude | Longitude | Altitude | Speed | Heading |
|---|---|---|---|---|---|
| 2026-04-29 06:06 | 26.20495 | 127.64850 | 21 ft | 0 kts | 87° |
| 2026-04-29 06:15 | 26.20495 | 127.64848 | 21 ft | 1 kts | 87° |
| 2026-04-29 06:15 | 26.20494 | 127.64840 | 22 ft | 1 kts | 87° |
| 2026-04-29 06:16 | 26.20494 | 127.64832 | 22 ft | 1 kts | 87° |
| 2026-04-29 06:16 | 26.20494 | 127.64824 | 23 ft | 1 kts | 73° |
| 2026-04-29 06:16 | 26.20491 | 127.64816 | 25 ft | 1 kts | 52° |
| 2026-04-29 06:16 | 26.20484 | 127.64808 | 24 ft | 1 kts | 41° |
| 2026-04-29 06:17 | 26.20477 | 127.64801 | 23 ft | 1 kts | 41° |
| 2026-04-29 06:17 | 26.20468 | 127.64794 | 25 ft | 1 kts | 1° |
| 2026-04-29 06:17 | 26.20466 | 127.64794 | 25 ft | 0 kts | 1° |
| 2026-04-29 06:17 | 26.20465 | 127.64794 | 25 ft | 0 kts | 1° |
| 2026-04-29 06:20 | 26.20466 | 127.64794 | 23 ft | 2 kts | 1° |
| 2026-04-29 06:21 | 26.20511 | 127.64769 | 21 ft | 9 kts | 329° |
| 2026-04-29 06:21 | 26.20574 | 127.64755 | 21 ft | 9 kts | 349° |
| 2026-04-29 06:21 | 26.20623 | 127.64705 | 24 ft | 11 kts | 285° |
| 2026-04-29 06:21 | 26.20627 | 127.64622 | 23 ft | 11 kts | 270° |
| 2026-04-29 06:22 | 26.20607 | 127.64550 | 23 ft | 10 kts | 202° |
| 2026-04-29 06:22 | 26.20585 | 127.64549 | 25 ft | 0 kts | 175° |
| 2026-04-29 06:22 | 26.20406 | 127.64559 | 25 ft | 62 kts | 177° |
| 2026-04-29 06:23 | 26.19740 | 127.64590 | 19 ft | 127 kts | 178° |
| 2026-04-29 06:23 | 26.18702 | 127.64656 | 181 ft | 164 kts | 176° |
| 2026-04-29 06:23 | 26.17478 | 127.64656 | 670 ft | 185 kts | 181° |
| 2026-04-29 06:23 | 26.16220 | 127.64575 | 1686 ft | 170 kts | 179° |
| 2026-04-29 06:24 | 26.15126 | 127.64631 | 2807 ft | 152 kts | 177° |
| 2026-04-29 06:24 | 26.14041 | 127.64749 | 3387 ft | 164 kts | 176° |
| 2026-04-29 06:24 | 26.12866 | 127.64915 | 3899 ft | 178 kts | 173° |
| 2026-04-29 06:24 | 26.11627 | 127.65115 | 4570 ft | 186 kts | 176° |
| 2026-04-29 06:25 | 26.10266 | 127.65259 | 4882 ft | 207 kts | 181° |
| 2026-04-29 06:25 | 26.08746 | 127.65258 | 5098 ft | 228 kts | 182° |
| 2026-04-29 06:25 | 26.07114 | 127.65265 | 5552 ft | 238 kts | 181° |
| 2026-04-29 06:25 | 26.05446 | 127.65305 | 6181 ft | 241 kts | 181° |
| 2026-04-29 06:26 | 26.03744 | 127.65393 | 6663 ft | 256 kts | 173° |
| 2026-04-29 06:26 | 26.02079 | 127.66268 | 7135 ft | 278 kts | 141° |
| 2026-04-29 06:26 | 26.01010 | 127.68100 | 7858 ft | 294 kts | 109° |
| 2026-04-29 06:26 | 26.00856 | 127.70372 | 8603 ft | 303 kts | 90° |
| 2026-04-29 06:27 | 26.00990 | 127.72742 | 9309 ft | 311 kts | 85° |
| 2026-04-29 06:27 | 26.01710 | 127.75020 | 9937 ft | 318 kts | 55° |
| 2026-04-29 06:27 | 26.03096 | 127.76974 | 10425 ft | 329 kts | 50° |
| 2026-04-29 06:27 | 26.04609 | 127.78994 | 10582 ft | 351 kts | 49° |
| 2026-04-29 06:28 | 26.06214 | 127.81134 | 10734 ft | 371 kts | 50° |
| 2026-04-29 06:28 | 26.07902 | 127.83405 | 10894 ft | 389 kts | 50° |
| 2026-04-29 06:28 | 26.09656 | 127.85786 | 11016 ft | 406 kts | 50° |
| 2026-04-29 06:28 | 26.11468 | 127.88265 | 11248 ft | 417 kts | 50° |
| 2026-04-29 06:29 | 26.13302 | 127.90781 | 11679 ft | 421 kts | 50° |
| 2026-04-29 06:29 | 26.15153 | 127.93322 | 12202 ft | 422 kts | 50° |
| 2026-04-29 06:29 | 26.17046 | 127.95784 | 12672 ft | 424 kts | 43° |
| 2026-04-29 06:29 | 26.19446 | 127.97675 | 13116 ft | 424 kts | 28° |
| 2026-04-29 06:30 | 26.22005 | 127.99324 | 13594 ft | 426 kts | 28° |
| 2026-04-29 06:30 | 26.27156 | 128.02696 | 14380 ft | 432 kts | 29° |
| 2026-04-29 06:30 | 26.29743 | 128.04423 | 14753 ft | 435 kts | 29° |
| 2026-04-29 06:31 | 26.32344 | 128.06172 | 15128 ft | 437 kts | 29° |
| 2026-04-29 06:31 | 26.34948 | 128.07934 | 15525 ft | 439 kts | 29° |
| 2026-04-29 06:31 | 26.36682 | 128.09108 | 15778 ft | 440 kts | 29° |
| 2026-04-29 06:31 | 26.39306 | 128.10888 | 16146 ft | 442 kts | 29° |
| 2026-04-29 06:32 | 26.41937 | 128.12674 | 16495 ft | 444 kts | 29° |
| 2026-04-29 06:32 | 26.44588 | 128.14473 | 16852 ft | 446 kts | 29° |
| 2026-04-29 06:32 | 26.47248 | 128.16279 | 17192 ft | 448 kts | 29° |
| 2026-04-29 06:32 | 26.49923 | 128.18096 | 17527 ft | 451 kts | 29° |
| 2026-04-29 06:33 | 26.52609 | 128.19921 | 17857 ft | 452 kts | 29° |
| 2026-04-29 06:33 | 26.55306 | 128.21754 | 18189 ft | 454 kts | 29° |
| 2026-04-29 06:33 | 26.58014 | 128.23596 | 18476 ft | 456 kts | 29° |
| 2026-04-29 06:33 | 26.60722 | 128.25440 | 18777 ft | 457 kts | 29° |
| 2026-04-29 06:34 | 26.63447 | 128.27296 | 19070 ft | 458 kts | 29° |
| 2026-04-29 06:34 | 26.66163 | 128.29146 | 19465 ft | 455 kts | 29° |
| 2026-04-29 06:34 | 26.68770 | 128.31077 | 19865 ft | 457 kts | 38° |
| 2026-04-29 06:34 | 26.70925 | 128.33709 | 20102 ft | 462 kts | 50° |
| 2026-04-29 06:35 | 26.72899 | 128.36575 | 20065 ft | 466 kts | 51° |
| 2026-04-29 06:35 | 26.74868 | 128.39460 | 20058 ft | 463 kts | 51° |
| 2026-04-29 06:35 | 26.76835 | 128.42315 | 20054 ft | 462 kts | 51° |
| 2026-04-29 06:35 | 26.78721 | 128.45016 | 20082 ft | 462 kts | 50° |
| 2026-04-29 06:36 | 26.80717 | 128.47845 | 20079 ft | 462 kts | 50° |
| 2026-04-29 06:36 | 26.82717 | 128.50663 | 20077 ft | 462 kts | 50° |
| 2026-04-29 06:36 | 26.84720 | 128.53482 | 20088 ft | 463 kts | 50° |
| 2026-04-29 06:36 | 26.86701 | 128.56273 | 20084 ft | 463 kts | 50° |
| 2026-04-29 06:37 | 26.88704 | 128.59098 | 20083 ft | 463 kts | 50° |
| 2026-04-29 06:37 | 26.90708 | 128.61930 | 20073 ft | 463 kts | 50° |
| 2026-04-29 06:37 | 26.92747 | 128.64724 | 20073 ft | 462 kts | 45° |
| 2026-04-29 06:37 | 26.95251 | 128.66922 | 20082 ft | 456 kts | 25° |
| 2026-04-29 06:38 | 26.98069 | 128.68544 | 20122 ft | 458 kts | 24° |
| 2026-04-29 06:38 | 27.00916 | 128.70203 | 20343 ft | 461 kts | 25° |
| 2026-04-29 06:38 | 27.03746 | 128.71881 | 20688 ft | 460 kts | 25° |
| 2026-04-29 06:38 | 27.06572 | 128.73576 | 20996 ft | 461 kts | 25° |
| 2026-04-29 06:39 | 27.09401 | 128.75287 | 21232 ft | 463 kts | 25° |
| 2026-04-29 06:39 | 27.12243 | 128.77013 | 21459 ft | 466 kts | 25° |
| 2026-04-29 06:39 | 27.15101 | 128.78751 | 21700 ft | 467 kts | 25° |
| 2026-04-29 06:39 | 27.17969 | 128.80498 | 21939 ft | 469 kts | 25° |
| 2026-04-29 06:40 | 27.20850 | 128.82252 | 22175 ft | 470 kts | 25° |
| 2026-04-29 06:40 | 27.23730 | 128.84007 | 22421 ft | 472 kts | 25° |
| 2026-04-29 06:40 | 27.26624 | 128.85770 | 22629 ft | 473 kts | 25° |
| 2026-04-29 06:40 | 27.29489 | 128.87517 | 22850 ft | 475 kts | 25° |
| 2026-04-29 06:41 | 27.32408 | 128.89297 | 23044 ft | 476 kts | 25° |
| 2026-04-29 06:41 | 27.35331 | 128.91080 | 23266 ft | 477 kts | 25° |
| 2026-04-29 06:41 | 27.38252 | 128.92864 | 23472 ft | 478 kts | 25° |
| 2026-04-29 06:41 | 27.41186 | 128.94656 | 23660 ft | 480 kts | 26° |
| 2026-04-29 06:42 | 27.44122 | 128.96451 | 23783 ft | 481 kts | 26° |
| 2026-04-29 06:42 | 27.47039 | 128.98235 | 23939 ft | 482 kts | 26° |
| 2026-04-29 06:42 | 27.50001 | 129.00047 | 24097 ft | 484 kts | 26° |
| 2026-04-29 06:42 | 27.52964 | 129.01862 | 24246 ft | 485 kts | 25° |
| 2026-04-29 06:43 | 27.55928 | 129.03678 | 24399 ft | 486 kts | 25° |
| 2026-04-29 06:43 | 27.58907 | 129.05505 | 24547 ft | 487 kts | 25° |
| 2026-04-29 06:43 | 27.61888 | 129.07334 | 24694 ft | 488 kts | 25° |
| 2026-04-29 06:43 | 27.64880 | 129.09171 | 24833 ft | 490 kts | 25° |
| 2026-04-29 06:44 | 27.67841 | 129.10990 | 24972 ft | 491 kts | 25° |
| 2026-04-29 06:44 | 27.70859 | 129.12845 | 25098 ft | 492 kts | 25° |
| 2026-04-29 06:44 | 27.73886 | 129.14707 | 25246 ft | 492 kts | 25° |
| 2026-04-29 06:44 | 27.76859 | 129.16537 | 25383 ft | 493 kts | 25° |
| 2026-04-29 06:45 | 27.79881 | 129.18398 | 25503 ft | 495 kts | 25° |
| 2026-04-29 06:45 | 27.82905 | 129.20262 | 25605 ft | 496 kts | 25° |
| 2026-04-29 06:45 | 27.85943 | 129.22135 | 25724 ft | 498 kts | 25° |
| 2026-04-29 06:45 | 27.88987 | 129.24014 | 25852 ft | 498 kts | 25° |
| 2026-04-29 06:46 | 27.92038 | 129.25897 | 25980 ft | 499 kts | 25° |
| 2026-04-29 06:46 | 27.95085 | 129.27780 | 26137 ft | 498 kts | 25° |
| 2026-04-29 06:46 | 27.98103 | 129.29649 | 26631 ft | 489 kts | 25° |
| 2026-04-29 06:46 | 28.01068 | 129.31486 | 27096 ft | 483 kts | 25° |
| 2026-04-29 06:47 | 28.04004 | 129.33305 | 27573 ft | 477 kts | 25° |
| 2026-04-29 06:47 | 28.06905 | 129.35103 | 28068 ft | 472 kts | 25° |
| 2026-04-29 06:47 | 28.09729 | 129.36853 | 28539 ft | 466 kts | 25° |
| 2026-04-29 06:47 | 28.12563 | 129.38611 | 29039 ft | 461 kts | 25° |
| 2026-04-29 06:48 | 28.15374 | 129.40355 | 29551 ft | 457 kts | 25° |
| 2026-04-29 06:48 | 28.18142 | 129.42076 | 30081 ft | 452 kts | 24° |
| 2026-04-29 06:48 | 28.20886 | 129.43781 | 30519 ft | 446 kts | 24° |
| 2026-04-29 06:48 | 28.23598 | 129.45465 | 30965 ft | 441 kts | 24° |
| 2026-04-29 06:49 | 28.26273 | 129.47129 | 31408 ft | 435 kts | 24° |
| 2026-04-29 06:49 | 28.28920 | 129.48776 | 31871 ft | 430 kts | 24° |
| 2026-04-29 06:49 | 28.31522 | 129.50397 | 32329 ft | 424 kts | 24° |
| 2026-04-29 06:49 | 28.34059 | 129.51978 | 32795 ft | 418 kts | 24° |
| 2026-04-29 06:50 | 28.36584 | 129.53552 | 33281 ft | 411 kts | 23° |
| 2026-04-29 06:50 | 28.39072 | 129.55103 | 33770 ft | 404 kts | 23° |
| 2026-04-29 06:50 | 28.41521 | 129.56632 | 34222 ft | 396 kts | 23° |
| 2026-04-29 06:50 | 28.43935 | 129.58100 | 34452 ft | 393 kts | 17° |
| 2026-04-29 06:51 | 28.46555 | 129.58922 | 34219 ft | 393 kts | 1° |
| 2026-04-29 06:51 | 28.49309 | 129.59324 | 34111 ft | 402 kts | 0° |
| 2026-04-29 06:51 | 28.52103 | 129.59693 | 34112 ft | 408 kts | 0° |
| 2026-04-29 06:51 | 28.54939 | 129.60068 | 33762 ft | 419 kts | 0° |
| 2026-04-29 06:52 | 28.57868 | 129.60474 | 33236 ft | 428 kts | 1° |
| 2026-04-29 06:52 | 28.63918 | 129.61360 | 33078 ft | 446 kts | 1° |
| 2026-04-29 06:53 | 28.70154 | 129.62309 | 33076 ft | 458 kts | 2° |
| 2026-04-29 06:53 | 28.76542 | 129.63290 | 33077 ft | 468 kts | 2° |
| 2026-04-29 06:54 | 28.83027 | 129.64285 | 33077 ft | 475 kts | 1° |
| 2026-04-29 06:54 | 28.89578 | 129.65291 | 33065 ft | 474 kts | 1° |
| 2026-04-29 06:55 | 28.96120 | 129.66295 | 33066 ft | 474 kts | 1° |
| 2026-04-29 06:55 | 29.02658 | 129.67297 | 33077 ft | 473 kts | 1° |
| 2026-04-29 06:56 | 29.09187 | 129.68299 | 33071 ft | 473 kts | 1° |
| 2026-04-29 06:56 | 29.15667 | 129.69295 | 33071 ft | 472 kts | 1° |
| 2026-04-29 06:57 | 29.22160 | 129.70295 | 33088 ft | 471 kts | 1° |
| 2026-04-29 06:57 | 29.28658 | 129.71297 | 33074 ft | 471 kts | 1° |
| 2026-04-29 06:58 | 29.35155 | 129.72300 | 33073 ft | 470 kts | 1° |
| 2026-04-29 06:58 | 29.41644 | 129.73303 | 33074 ft | 470 kts | 1° |
| 2026-04-29 06:59 | 29.48140 | 129.74308 | 33080 ft | 470 kts | 1° |
| 2026-04-29 06:59 | 29.54622 | 129.75314 | 33075 ft | 470 kts | 1° |
| 2026-04-29 07:00 | 29.61064 | 129.76314 | 33071 ft | 470 kts | 1° |
| 2026-04-29 07:00 | 29.67555 | 129.77324 | 33077 ft | 470 kts | 1° |
| 2026-04-29 07:01 | 29.74045 | 129.78334 | 33076 ft | 470 kts | 1° |
| 2026-04-29 07:01 | 29.80529 | 129.79345 | 33075 ft | 470 kts | 1° |
| 2026-04-29 07:02 | 29.86978 | 129.80351 | 33084 ft | 470 kts | 1° |
| 2026-04-29 07:02 | 29.93465 | 129.81370 | 33071 ft | 470 kts | 1° |
| 2026-04-29 07:03 | 29.99958 | 129.82381 | 33074 ft | 470 kts | 1° |
| 2026-04-29 07:03 | 30.06442 | 129.83199 | 33092 ft | 467 kts | 358° |
| 2026-04-29 07:04 | 30.12917 | 129.83830 | 33076 ft | 467 kts | 358° |
| 2026-04-29 07:04 | 30.19351 | 129.84491 | 33072 ft | 467 kts | 358° |
| 2026-04-29 07:05 | 30.25830 | 129.85191 | 33076 ft | 467 kts | 359° |
| 2026-04-29 07:05 | 30.32308 | 129.85895 | 33077 ft | 468 kts | 358° |
| 2026-04-29 07:06 | 30.38804 | 129.86599 | 33080 ft | 468 kts | 359° |
| 2026-04-29 07:06 | 30.45304 | 129.87305 | 33080 ft | 469 kts | 359° |
| 2026-04-29 07:07 | 30.51790 | 129.88011 | 33088 ft | 470 kts | 358° |
| 2026-04-29 07:07 | 30.58322 | 129.88722 | 33083 ft | 471 kts | 358° |
| 2026-04-29 07:08 | 30.64867 | 129.89437 | 33082 ft | 472 kts | 358° |
| 2026-04-29 07:08 | 30.71375 | 129.90148 | 33091 ft | 473 kts | 358° |
| 2026-04-29 07:09 | 30.77952 | 129.90868 | 33079 ft | 473 kts | 358° |
| 2026-04-29 07:09 | 30.84519 | 129.91588 | 33086 ft | 474 kts | 358° |
| 2026-04-29 07:10 | 30.91051 | 129.92304 | 33092 ft | 474 kts | 358° |
| 2026-04-29 07:10 | 30.97623 | 129.93026 | 33080 ft | 474 kts | 358° |
| 2026-04-29 07:11 | 31.04175 | 129.93747 | 33078 ft | 474 kts | 358° |
| 2026-04-29 07:11 | 31.10743 | 129.94471 | 33093 ft | 473 kts | 358° |
| 2026-04-29 07:12 | 31.17306 | 129.95195 | 33080 ft | 474 kts | 358° |
| 2026-04-29 07:12 | 31.23872 | 129.95920 | 33075 ft | 473 kts | 358° |
| 2026-04-29 07:13 | 31.30435 | 129.96635 | 33103 ft | 472 kts | 357° |
| 2026-04-29 07:13 | 31.36987 | 129.97172 | 33082 ft | 471 kts | 356° |
| 2026-04-29 07:14 | 31.43534 | 129.97651 | 33074 ft | 471 kts | 356° |
| 2026-04-29 07:14 | 31.50040 | 129.98147 | 33076 ft | 471 kts | 356° |
| 2026-04-29 07:15 | 31.56583 | 129.98663 | 33079 ft | 471 kts | 356° |
| 2026-04-29 07:15 | 31.63131 | 129.99185 | 33075 ft | 471 kts | 356° |
| 2026-04-29 07:16 | 31.69665 | 129.99706 | 33079 ft | 471 kts | 356° |
| 2026-04-29 07:16 | 31.76211 | 130.00228 | 33075 ft | 471 kts | 356° |
| 2026-04-29 07:17 | 31.81647 | 130.00662 | 33075 ft | 471 kts | 356° |
| 2026-04-29 07:17 | 31.88188 | 130.01185 | 33076 ft | 471 kts | 356° |
| 2026-04-29 07:18 | 31.94728 | 130.01708 | 33095 ft | 472 kts | 356° |
| 2026-04-29 07:18 | 32.01296 | 130.02234 | 33080 ft | 472 kts | 356° |
| 2026-04-29 07:19 | 32.07868 | 130.02762 | 33082 ft | 472 kts | 356° |
| 2026-04-29 07:19 | 32.14395 | 130.03279 | 33083 ft | 472 kts | 356° |
| 2026-04-29 07:20 | 32.20965 | 130.03813 | 33080 ft | 473 kts | 356° |
| 2026-04-29 07:20 | 32.24264 | 130.04080 | 32733 ft | 479 kts | 356° |
| 2026-04-29 07:20 | 32.27594 | 130.04349 | 32260 ft | 478 kts | 356° |
| 2026-04-29 07:20 | 32.30889 | 130.04620 | 31791 ft | 472 kts | 356° |
| 2026-04-29 07:21 | 32.34163 | 130.04890 | 31362 ft | 471 kts | 356° |
| 2026-04-29 07:21 | 32.37436 | 130.05153 | 30832 ft | 474 kts | 356° |
| 2026-04-29 07:21 | 32.40738 | 130.05415 | 30317 ft | 476 kts | 356° |
| 2026-04-29 07:21 | 32.44051 | 130.05683 | 29732 ft | 478 kts | 356° |
| 2026-04-29 07:22 | 32.47371 | 130.05956 | 29153 ft | 479 kts | 356° |
| 2026-04-29 07:22 | 32.50710 | 130.06229 | 28531 ft | 481 kts | 356° |
| 2026-04-29 07:22 | 32.54044 | 130.06499 | 27964 ft | 478 kts | 356° |
| 2026-04-29 07:22 | 32.57274 | 130.06766 | 27375 ft | 465 kts | 356° |
| 2026-04-29 07:23 | 32.60446 | 130.06867 | 26802 ft | 447 kts | 349° |
| 2026-04-29 07:23 | 32.63452 | 130.06413 | 26243 ft | 425 kts | 339° |
| 2026-04-29 07:23 | 32.66303 | 130.05653 | 25710 ft | 414 kts | 339° |
| 2026-04-29 07:23 | 32.69087 | 130.04896 | 25179 ft | 407 kts | 339° |
| 2026-04-29 07:24 | 32.71845 | 130.04157 | 24670 ft | 405 kts | 339° |
| 2026-04-29 07:24 | 32.74596 | 130.03441 | 24157 ft | 403 kts | 340° |
| 2026-04-29 07:24 | 32.77336 | 130.02742 | 23678 ft | 401 kts | 339° |
| 2026-04-29 07:24 | 32.80075 | 130.02044 | 23083 ft | 404 kts | 339° |
| 2026-04-29 07:25 | 32.82822 | 130.01346 | 22484 ft | 401 kts | 339° |
| 2026-04-29 07:25 | 32.85540 | 130.00655 | 21915 ft | 400 kts | 339° |
| 2026-04-29 07:25 | 32.88219 | 129.99974 | 21342 ft | 396 kts | 339° |
| 2026-04-29 07:25 | 32.90904 | 129.99292 | 20789 ft | 393 kts | 339° |
| 2026-04-29 07:26 | 32.93566 | 129.98613 | 20240 ft | 390 kts | 339° |
| 2026-04-29 07:26 | 32.96216 | 129.97936 | 19703 ft | 387 kts | 339° |
| 2026-04-29 07:26 | 32.98841 | 129.97265 | 19189 ft | 385 kts | 339° |
| 2026-04-29 07:26 | 33.01452 | 129.96597 | 18682 ft | 382 kts | 339° |
| 2026-04-29 07:27 | 33.04047 | 129.95931 | 18139 ft | 380 kts | 339° |
| 2026-04-29 07:27 | 33.06626 | 129.95270 | 17564 ft | 377 kts | 340° |
| 2026-04-29 07:27 | 33.09174 | 129.94641 | 16915 ft | 370 kts | 341° |
| 2026-04-29 07:27 | 33.11669 | 129.94049 | 16404 ft | 360 kts | 339° |
| 2026-04-29 07:28 | 33.14115 | 129.93379 | 16181 ft | 363 kts | 339° |
| 2026-04-29 07:28 | 33.16608 | 129.92707 | 16157 ft | 372 kts | 340° |
| 2026-04-29 07:28 | 33.19150 | 129.92041 | 16128 ft | 387 kts | 340° |
| 2026-04-29 07:28 | 33.21832 | 129.91346 | 16136 ft | 402 kts | 341° |
| 2026-04-29 07:29 | 33.24557 | 129.90649 | 16105 ft | 395 kts | 341° |
| 2026-04-29 07:29 | 33.27199 | 129.89984 | 16095 ft | 380 kts | 341° |
| 2026-04-29 07:29 | 33.29733 | 129.89345 | 16106 ft | 364 kts | 340° |
| 2026-04-29 07:29 | 33.32164 | 129.88727 | 16073 ft | 351 kts | 340° |
| 2026-04-29 07:30 | 33.34558 | 129.88107 | 15400 ft | 357 kts | 340° |
| 2026-04-29 07:30 | 33.37048 | 129.87450 | 14420 ft | 375 kts | 341° |
| 2026-04-29 07:30 | 33.39570 | 129.86799 | 14320 ft | 368 kts | 341° |
| 2026-04-29 07:31 | 33.44873 | 129.85420 | 13893 ft | 402 kts | 342° |
| 2026-04-29 07:31 | 33.47622 | 129.84749 | 13585 ft | 403 kts | 346° |
| 2026-04-29 07:31 | 33.50423 | 129.84843 | 13288 ft | 403 kts | 4° |
| 2026-04-29 07:31 | 33.53155 | 129.85355 | 13049 ft | 391 kts | 3° |
| 2026-04-29 07:32 | 33.55784 | 129.85799 | 12795 ft | 380 kts | 2° |
| 2026-04-29 07:32 | 33.58369 | 129.86202 | 12587 ft | 370 kts | 2° |
| 2026-04-29 07:32 | 33.60892 | 129.86582 | 12368 ft | 360 kts | 1° |
| 2026-04-29 07:32 | 33.63346 | 129.86950 | 12200 ft | 351 kts | 1° |
| 2026-04-29 07:33 | 33.65736 | 129.87310 | 12037 ft | 341 kts | 1° |
| 2026-04-29 07:33 | 33.68051 | 129.87658 | 11988 ft | 329 kts | 1° |
| 2026-04-29 07:33 | 33.70280 | 129.87996 | 11972 ft | 316 kts | 1° |
| 2026-04-29 07:33 | 33.72425 | 129.88321 | 11966 ft | 304 kts | 1° |
| 2026-04-29 07:34 | 33.74483 | 129.88666 | 11964 ft | 295 kts | 6° |
| 2026-04-29 07:34 | 33.76423 | 129.89414 | 12017 ft | 292 kts | 15° |
| 2026-04-29 07:34 | 33.78310 | 129.90329 | 12023 ft | 294 kts | 16° |
| 2026-04-29 07:34 | 33.80215 | 129.91242 | 12030 ft | 295 kts | 15° |
| 2026-04-29 07:35 | 33.82138 | 129.92137 | 12025 ft | 296 kts | 15° |
| 2026-04-29 07:35 | 33.84047 | 129.93045 | 12020 ft | 300 kts | 21° |
| 2026-04-29 07:35 | 33.85730 | 129.94580 | 12032 ft | 307 kts | 40° |
| 2026-04-29 07:35 | 33.87257 | 129.96385 | 12018 ft | 308 kts | 40° |
| 2026-04-29 07:36 | 33.88803 | 129.98170 | 12019 ft | 308 kts | 39° |
| 2026-04-29 07:36 | 33.90361 | 129.99943 | 12020 ft | 308 kts | 39° |
| 2026-04-29 07:36 | 33.91903 | 130.01733 | 12015 ft | 309 kts | 45° |
| 2026-04-29 07:36 | 33.93004 | 130.03968 | 12016 ft | 311 kts | 65° |
| 2026-04-29 07:37 | 33.93847 | 130.06361 | 12015 ft | 311 kts | 65° |
| 2026-04-29 07:37 | 33.94714 | 130.08751 | 12019 ft | 310 kts | 64° |
| 2026-04-29 07:37 | 33.95591 | 130.11122 | 12026 ft | 310 kts | 64° |
| 2026-04-29 07:37 | 33.96442 | 130.13510 | 12008 ft | 311 kts | 71° |
| 2026-04-29 07:38 | 33.96716 | 130.16084 | 12028 ft | 309 kts | 90° |
| 2026-04-29 07:38 | 33.96739 | 130.18647 | 12018 ft | 311 kts | 90° |
| 2026-04-29 07:38 | 33.96526 | 130.21221 | 11995 ft | 307 kts | 112° |
| 2026-04-29 07:38 | 33.95484 | 130.23388 | 12017 ft | 295 kts | 140° |
| 2026-04-29 07:39 | 33.93866 | 130.24812 | 12017 ft | 282 kts | 164° |
| 2026-04-29 07:39 | 33.92027 | 130.25443 | 12010 ft | 269 kts | 181° |
| 2026-04-29 07:39 | 33.90228 | 130.25354 | 11972 ft | 251 kts | 195° |
| 2026-04-29 07:39 | 33.88462 | 130.25005 | 11407 ft | 263 kts | 196° |
| 2026-04-29 07:40 | 33.86674 | 130.24622 | 11253 ft | 258 kts | 196° |
| 2026-04-29 07:40 | 33.84914 | 130.24246 | 11084 ft | 257 kts | 196° |
| 2026-04-29 07:40 | 33.83170 | 130.23878 | 10930 ft | 258 kts | 196° |
| 2026-04-29 07:40 | 33.81402 | 130.23508 | 10767 ft | 259 kts | 196° |
| 2026-04-29 07:41 | 33.79622 | 130.23140 | 10607 ft | 259 kts | 195° |
| 2026-04-29 07:41 | 33.77838 | 130.22773 | 10444 ft | 260 kts | 195° |
| 2026-04-29 07:41 | 33.76053 | 130.22408 | 10284 ft | 260 kts | 195° |
| 2026-04-29 07:41 | 33.74268 | 130.22044 | 10125 ft | 260 kts | 195° |
| 2026-04-29 07:42 | 33.72483 | 130.21680 | 9952 ft | 260 kts | 195° |
| 2026-04-29 07:42 | 33.70684 | 130.21362 | 9764 ft | 263 kts | 187° |
| 2026-04-29 07:42 | 33.68888 | 130.21852 | 9588 ft | 271 kts | 159° |
| 2026-04-29 07:42 | 33.67282 | 130.23026 | 9430 ft | 269 kts | 150° |
| 2026-04-29 07:43 | 33.65771 | 130.24331 | 9257 ft | 266 kts | 149° |
| 2026-04-29 07:43 | 33.64290 | 130.25636 | 9079 ft | 262 kts | 149° |
| 2026-04-29 07:43 | 33.62849 | 130.26892 | 8915 ft | 257 kts | 149° |
| 2026-04-29 07:43 | 33.61408 | 130.28132 | 8760 ft | 252 kts | 150° |
| 2026-04-29 07:44 | 33.59994 | 130.29337 | 8604 ft | 247 kts | 150° |
| 2026-04-29 07:44 | 33.58601 | 130.30517 | 8456 ft | 243 kts | 150° |
| 2026-04-29 07:44 | 33.57237 | 130.31672 | 8292 ft | 238 kts | 150° |
| 2026-04-29 07:44 | 33.55897 | 130.32795 | 8139 ft | 232 kts | 152° |
| 2026-04-29 07:45 | 33.54547 | 130.33848 | 7972 ft | 232 kts | 153° |
| 2026-04-29 07:45 | 33.53183 | 130.34891 | 7767 ft | 232 kts | 152° |
| 2026-04-29 07:45 | 33.51813 | 130.35939 | 7510 ft | 234 kts | 152° |
| 2026-04-29 07:45 | 33.50442 | 130.36991 | 7312 ft | 234 kts | 152° |
| 2026-04-29 07:46 | 33.49077 | 130.38040 | 7146 ft | 233 kts | 152° |
| 2026-04-29 07:46 | 33.47715 | 130.39089 | 6923 ft | 232 kts | 152° |
| 2026-04-29 07:46 | 33.46356 | 130.40136 | 6685 ft | 231 kts | 151° |
| 2026-04-29 07:46 | 33.45009 | 130.41176 | 6475 ft | 230 kts | 151° |
| 2026-04-29 07:47 | 33.43708 | 130.42299 | 6046 ft | 230 kts | 148° |
| 2026-04-29 07:47 | 33.42366 | 130.43369 | 5739 ft | 239 kts | 152° |
| 2026-04-29 07:47 | 33.40939 | 130.44352 | 5678 ft | 233 kts | 154° |
| 2026-04-29 07:47 | 33.39552 | 130.45339 | 5477 ft | 232 kts | 150° |
| 2026-04-29 07:48 | 33.38199 | 130.46384 | 5295 ft | 230 kts | 150° |
| 2026-04-29 07:48 | 33.36852 | 130.47405 | 5079 ft | 230 kts | 148° |
| 2026-04-29 07:48 | 33.35514 | 130.48454 | 4996 ft | 229 kts | 149° |
| 2026-04-29 07:48 | 33.34194 | 130.49481 | 4988 ft | 225 kts | 149° |
| 2026-04-29 07:49 | 33.32887 | 130.50491 | 4971 ft | 223 kts | 149° |
| 2026-04-29 07:49 | 33.31583 | 130.51494 | 4992 ft | 224 kts | 149° |
| 2026-04-29 07:49 | 33.30306 | 130.52589 | 4989 ft | 230 kts | 134° |
| 2026-04-29 07:49 | 33.29636 | 130.54291 | 4996 ft | 230 kts | 95° |
| 2026-04-29 07:50 | 33.29923 | 130.56131 | 4933 ft | 226 kts | 62° |
| 2026-04-29 07:50 | 33.30684 | 130.57769 | 4713 ft | 225 kts | 58° |
| 2026-04-29 07:50 | 33.31471 | 130.59388 | 4538 ft | 223 kts | 58° |
| 2026-04-29 07:50 | 33.32369 | 130.60818 | 4456 ft | 209 kts | 34° |
| 2026-04-29 07:51 | 33.33658 | 130.61368 | 4372 ft | 191 kts | 359° |
| 2026-04-29 07:51 | 33.34910 | 130.61134 | 4279 ft | 176 kts | 336° |
| 2026-04-29 07:51 | 33.35985 | 130.60488 | 4035 ft | 171 kts | 329° |
| 2026-04-29 07:51 | 33.37018 | 130.59786 | 3848 ft | 171 kts | 329° |
| 2026-04-29 07:52 | 33.38072 | 130.59100 | 3842 ft | 177 kts | 331° |
| 2026-04-29 07:52 | 33.39148 | 130.58400 | 3792 ft | 174 kts | 330° |
| 2026-04-29 07:52 | 33.40193 | 130.57699 | 3781 ft | 171 kts | 329° |
| 2026-04-29 07:52 | 33.41222 | 130.56997 | 3708 ft | 172 kts | 329° |
| 2026-04-29 07:53 | 33.42260 | 130.56286 | 3509 ft | 173 kts | 330° |
| 2026-04-29 07:53 | 33.43295 | 130.55574 | 3257 ft | 168 kts | 331° |
| 2026-04-29 07:53 | 33.44281 | 130.54896 | 3040 ft | 159 kts | 332° |
| 2026-04-29 07:53 | 33.45226 | 130.54247 | 2819 ft | 156 kts | 332° |
| 2026-04-29 07:54 | 33.46164 | 130.53602 | 2605 ft | 156 kts | 333° |
| 2026-04-29 07:54 | 33.47089 | 130.52967 | 2395 ft | 151 kts | 333° |
| 2026-04-29 07:54 | 33.47978 | 130.52356 | 2213 ft | 146 kts | 333° |
| 2026-04-29 07:54 | 33.48865 | 130.51748 | 2021 ft | 148 kts | 333° |
| 2026-04-29 07:55 | 33.49758 | 130.51135 | 1827 ft | 148 kts | 333° |
| 2026-04-29 07:55 | 33.50651 | 130.50521 | 1639 ft | 145 kts | 332° |
| 2026-04-29 07:55 | 33.51512 | 130.49929 | 1417 ft | 141 kts | 333° |
| 2026-04-29 07:55 | 33.52355 | 130.49350 | 1218 ft | 140 kts | 332° |
| 2026-04-29 07:56 | 33.53197 | 130.48771 | 1026 ft | 141 kts | 332° |
| 2026-04-29 07:56 | 33.54036 | 130.48196 | 850 ft | 140 kts | 332° |
| 2026-04-29 07:56 | 33.54871 | 130.47589 | 666 ft | 141 kts | 330° |
| 2026-04-29 07:56 | 33.55742 | 130.46988 | 464 ft | 150 kts | 333° |
| 2026-04-29 07:57 | 33.56637 | 130.46395 | 272 ft | 143 kts | 332° |
| 2026-04-29 07:57 | 33.57477 | 130.45818 | 87 ft | 136 kts | 333° |
| 2026-04-29 07:57 | 33.58227 | 130.45317 | 31 ft | 105 kts | 330° |
| 2026-04-29 07:57 | 33.58720 | 130.44986 | 29 ft | 53 kts | 329° |
| 2026-04-29 07:58 | 33.59001 | 130.44802 | 27 ft | 36 kts | 345° |
| 2026-04-29 07:58 | 33.59148 | 130.44769 | 25 ft | 18 kts | 355° |
| 2026-04-29 07:58 | 33.59260 | 130.44767 | 25 ft | 11 kts | 359° |
| 2026-04-29 07:58 | 33.59337 | 130.44766 | 23 ft | 12 kts | 359° |
| 2026-04-29 07:59 | 33.59421 | 130.44729 | 23 ft | 14 kts | 329° |
| 2026-04-29 07:59 | 33.59454 | 130.44711 | 23 ft | 3 kts | 343° |
| 2026-04-29 07:59 | 33.59516 | 130.44735 | 22 ft | 14 kts | 13° |
| 2026-04-29 07:59 | 33.59602 | 130.44698 | 22 ft | 13 kts | 332° |
| 2026-04-29 08:00 | 33.59681 | 130.44648 | 22 ft | 13 kts | 332° |
| 2026-04-29 08:00 | 33.59758 | 130.44598 | 21 ft | 12 kts | 331° |
| 2026-04-29 08:00 | 33.59820 | 130.44605 | 20 ft | 10 kts | 41° |
| 2026-04-29 08:00 | 33.59851 | 130.44663 | 22 ft | 1 kts | 60° |
| 2026-04-29 08:01 | 33.59851 | 130.44664 | 22 ft | 0 kts | 60° |